createdAt,value
2023-05-05T00:02:32.780Z,45.15
2023-05-05T00:05:36.428Z,59.88
2023-05-05T00:08:40.061Z,39.27
2023-05-05T00:11:43.565Z,35.00
2023-05-05T00:14:46.420Z,30.58
2023-05-05T00:17:50.517Z,34.67
2023-05-05T00:20:54.140Z,34.60
2023-05-05T00:23:57.740Z,53.83
2023-05-05T00:27:02.778Z,53.05
2023-05-05T00:30:07.932Z,55.17
2023-05-05T00:33:11.887Z,38.42
2023-05-05T00:36:15.710Z,42.83
2023-05-05T00:39:19.271Z,41.40
2023-05-05T00:42:22.998Z,34.80
2023-05-05T00:45:26.550Z,42.10
2023-05-05T00:48:33.160Z,49.88
2023-05-05T00:51:36.262Z,29.05
2023-05-05T00:54:40.324Z,36.53
2023-05-05T00:57:45.313Z,24.02
2023-05-05T01:00:49.488Z,35.05
2023-05-05T01:03:53.188Z,33.88
2023-05-05T01:07:34.688Z,40.63
2023-05-05T01:10:48.972Z,31.03
2023-05-05T01:13:55.842Z,36.67
2023-05-05T01:17:10.972Z,34.20
2023-05-05T01:20:22.472Z,35.80
2023-05-05T01:23:48.661Z,38.90
2023-05-05T01:27:19.751Z,28.60
2023-05-05T01:31:09.296Z,23.83
2023-05-05T01:34:16.390Z,32.75
2023-05-05T01:37:23.114Z,12.30
2023-05-05T01:40:32.292Z,6.18
2023-05-05T01:43:37.871Z,3.67
2023-05-05T01:46:41.837Z,5.18
2023-05-05T01:49:47.646Z,7.43
2023-05-05T01:52:52.593Z,3.08
2023-05-05T01:55:57.292Z,4.68
2023-05-05T01:59:02.934Z,7.10
2023-05-05T02:02:08.976Z,7.15
2023-05-05T02:05:14.633Z,2.85
2023-05-05T02:08:20.030Z,3.17
2023-05-05T02:11:25.095Z,5.65
2023-05-05T02:14:31.362Z,4.57
2023-05-05T02:17:35.381Z,7.15
2023-05-05T02:20:40.476Z,5.93
2023-05-05T02:23:52.698Z,4.93
2023-05-05T02:26:59.272Z,2.63
2023-05-05T02:30:10.453Z,1.93
2023-05-05T02:33:21.320Z,7.35
2023-05-05T02:36:30.624Z,2.05
2023-05-05T02:39:44.360Z,3.28
2023-05-05T02:42:55.458Z,4.90
2023-05-05T02:46:23.507Z,1.93
2023-05-05T02:49:28.413Z,2.92
2023-05-05T02:52:36.667Z,2.53
2023-05-05T02:55:52.534Z,5.07
2023-05-05T02:59:31.683Z,9.90
2023-05-05T03:03:14.789Z,7.20
2023-05-05T03:06:25.722Z,3.92
2023-05-05T03:09:40.657Z,4.05
2023-05-05T03:12:54.296Z,2.85
2023-05-05T03:16:08.982Z,6.07
2023-05-05T03:19:14.369Z,2.17
2023-05-05T03:22:19.337Z,4.60
2023-05-05T03:25:23.405Z,8.27
2023-05-05T03:28:26.417Z,3.08
2023-05-05T03:31:30.089Z,2.22
2023-05-05T03:34:38.011Z,6.57
2023-05-05T03:37:42.478Z,4.03
2023-05-05T03:40:46.102Z,3.28
2023-05-05T03:43:54.605Z,3.42
2023-05-05T03:46:57.601Z,2.83
2023-05-05T03:50:02.458Z,2.40
2023-05-05T03:53:06.171Z,2.17
2023-05-05T03:56:10.058Z,2.67
2023-05-05T03:59:13.394Z,2.17
2023-05-05T04:02:18.855Z,3.83
2023-05-05T04:05:23.588Z,4.00
2023-05-05T04:08:27.799Z,2.90
2023-05-05T04:11:31.132Z,4.85
2023-05-05T04:14:35.326Z,8.48
2023-05-05T04:17:38.370Z,6.30
2023-05-05T04:20:42.784Z,2.63
2023-05-05T04:23:47.290Z,3.38
2023-05-05T04:26:50.874Z,6.18
2023-05-05T04:29:54.603Z,5.90
2023-05-05T04:32:57.460Z,4.38
2023-05-05T04:36:00.683Z,4.20
2023-05-05T04:39:07.610Z,3.15
2023-05-05T04:42:11.331Z,5.43
2023-05-05T04:45:15.354Z,2.63
2023-05-05T04:48:21.201Z,2.53
2023-05-05T04:51:24.496Z,2.73
2023-05-05T04:54:28.191Z,4.35
2023-05-05T04:57:31.464Z,3.92
2023-05-05T05:00:38.013Z,2.13
2023-05-05T05:03:40.966Z,2.17
2023-05-05T05:06:44.506Z,3.30
2023-05-05T05:09:47.781Z,3.50
2023-05-05T05:12:51.321Z,4.55
2023-05-05T05:15:54.337Z,9.05
2023-05-05T05:18:59.102Z,5.68
2023-05-05T05:22:05.399Z,4.10
2023-05-05T05:25:12.979Z,4.38
2023-05-05T05:28:16.502Z,8.50
2023-05-05T05:31:25.024Z,4.18
2023-05-05T05:34:28.314Z,3.55
2023-05-05T05:37:32.455Z,6.50
2023-05-05T05:40:36.866Z,3.65
2023-05-05T05:43:39.928Z,4.57
2023-05-05T05:46:43.992Z,2.55
2023-05-05T05:49:47.585Z,6.00
2023-05-05T05:52:50.655Z,5.83
2023-05-05T05:55:55.384Z,3.00
2023-05-05T05:58:58.280Z,6.63
2023-05-05T06:02:02.046Z,2.90
2023-05-05T06:05:06.222Z,5.88
2023-05-05T06:08:10.195Z,5.93
2023-05-05T06:11:18.324Z,3.28
2023-05-05T06:14:21.560Z,3.00
2023-05-05T06:17:24.656Z,7.72
2023-05-05T06:20:28.105Z,7.57
2023-05-05T06:23:31.701Z,3.33
2023-05-05T06:26:40.006Z,2.38
2023-05-05T06:29:42.798Z,6.15
2023-05-05T06:32:46.224Z,7.32
2023-05-05T06:35:50.149Z,5.90
2023-05-05T06:38:53.105Z,9.77
2023-05-05T06:41:56.836Z,6.82
2023-05-05T06:44:59.726Z,2.20
2023-05-05T06:48:02.840Z,12.18
2023-05-05T06:51:06.151Z,4.72
2023-05-05T06:54:09.808Z,3.13
2023-05-05T06:57:13.842Z,5.35
2023-05-05T07:00:17.955Z,14.40
2023-05-05T07:03:22.127Z,2.00
2023-05-05T07:06:25.975Z,6.00
2023-05-05T07:09:29.659Z,2.57
2023-05-05T07:12:33.466Z,8.65
2023-05-05T07:15:37.182Z,4.75
2023-05-05T07:18:40.616Z,5.43
2023-05-05T07:21:43.540Z,4.50
2023-05-05T07:24:48.134Z,4.67
2023-05-05T07:27:52.826Z,3.80
2023-05-05T07:30:55.744Z,6.70
2023-05-05T07:33:59.331Z,5.85
2023-05-05T07:37:02.425Z,14.23
2023-05-05T07:40:06.885Z,3.13
2023-05-05T07:43:10.215Z,7.95
2023-05-05T07:46:14.337Z,2.20
2023-05-05T07:49:18.066Z,1.58
2023-05-05T07:52:27.497Z,2.38
2023-05-05T07:55:37.047Z,9.90
2023-05-05T07:58:40.690Z,9.52
2023-05-05T08:01:44.522Z,10.68
2023-05-05T08:04:47.837Z,9.63
2023-05-05T08:07:50.940Z,3.35
2023-05-05T08:10:53.817Z,4.17
2023-05-05T08:13:57.356Z,4.70
2023-05-05T08:32:50.122Z,10.07
2023-05-05T08:35:53.699Z,5.00
2023-05-05T08:38:57.942Z,10.65
2023-05-05T08:42:00.827Z,3.65
2023-05-05T08:45:04.290Z,4.03
2023-05-05T08:48:07.475Z,7.07
2023-05-05T08:51:21.538Z,6.20
2023-05-05T08:54:28.011Z,3.10
2023-05-05T08:57:50.587Z,5.65
2023-05-05T09:01:04.134Z,5.20
2023-05-05T09:04:09.539Z,11.00
2023-05-05T09:07:13.625Z,2.13
2023-05-05T09:10:17.613Z,7.57
2023-05-05T09:13:30.922Z,6.65
2023-05-05T09:16:34.338Z,7.97
2023-05-05T09:20:17.151Z,6.40
2023-05-05T09:23:21.952Z,11.32
2023-05-05T09:26:25.907Z,4.78
2023-05-05T09:29:30.003Z,12.80
2023-05-05T09:32:54.807Z,6.40
2023-05-05T09:35:59.040Z,3.23
2023-05-05T09:39:07.248Z,7.40
2023-05-05T09:42:20.283Z,5.63
2023-05-05T09:45:23.799Z,6.57
2023-05-05T09:48:29.504Z,2.50
2023-05-05T09:51:32.989Z,4.70
2023-05-05T09:54:36.654Z,6.45
2023-05-05T09:57:40.614Z,8.10
2023-05-05T10:00:43.814Z,7.53
2023-05-05T10:03:52.932Z,6.53
2023-05-05T10:06:57.559Z,6.20
2023-05-05T10:10:01.205Z,5.43
2023-05-05T10:13:05.144Z,5.57
2023-05-05T10:16:10.356Z,1.85
2023-05-05T10:19:17.193Z,6.00
2023-05-05T10:22:24.101Z,5.80
2023-05-05T10:25:34.915Z,4.45
2023-05-05T10:28:48.491Z,3.03
2023-05-05T10:31:56.231Z,7.28
2023-05-05T10:35:04.980Z,5.03
2023-05-05T10:38:14.194Z,5.20
2023-05-05T10:41:20.392Z,5.38
2023-05-05T10:44:24.341Z,7.30
2023-05-05T10:47:29.641Z,6.45
2023-05-05T10:50:40.634Z,6.10
2023-05-05T10:53:55.183Z,5.40
2023-05-05T10:57:03.429Z,7.65
2023-05-05T11:00:09.057Z,14.73
2023-05-05T11:03:18.081Z,9.93
2023-05-05T11:06:21.078Z,10.27
2023-05-05T11:09:30.415Z,14.20
2023-05-05T11:12:53.887Z,16.08
2023-05-05T11:16:01.221Z,14.57
2023-05-05T11:19:43.328Z,17.38
2023-05-05T11:23:05.340Z,14.80
2023-05-05T11:26:09.415Z,28.60
2023-05-05T11:29:12.377Z,20.52
2023-05-05T11:32:20.425Z,9.02
2023-05-05T11:35:59.734Z,15.65
2023-05-05T11:39:12.551Z,14.13
2023-05-05T11:42:26.280Z,17.80
2023-05-05T11:45:30.213Z,13.75
2023-05-05T11:48:33.025Z,16.30
2023-05-05T11:51:37.330Z,22.05
2023-05-05T11:54:48.789Z,13.70
2023-05-05T11:57:51.862Z,23.53
2023-05-05T12:00:55.432Z,20.75
2023-05-05T12:03:59.252Z,22.02
2023-05-05T12:07:03.062Z,26.75
2023-05-05T12:10:08.268Z,22.03
2023-05-05T12:13:21.117Z,30.90
2023-05-05T12:16:24.968Z,39.35
2023-05-05T12:19:33.628Z,35.90
2023-05-05T12:22:37.096Z,25.02
2023-05-05T12:25:41.342Z,24.83
2023-05-05T12:28:48.587Z,20.33
2023-05-05T12:31:52.393Z,23.60
2023-05-05T12:35:00.566Z,25.15
2023-05-05T12:38:04.593Z,28.35
2023-05-05T12:41:09.116Z,20.63
2023-05-05T12:44:12.732Z,24.63
2023-05-05T12:47:41.039Z,37.00
2023-05-05T12:50:44.797Z,33.47
2023-05-05T12:53:50.235Z,21.52
2023-05-05T12:56:53.198Z,20.17
2023-05-05T12:59:56.278Z,34.30
2023-05-05T13:02:59.292Z,27.23
2023-05-05T13:06:04.338Z,22.35
2023-05-05T13:09:08.414Z,25.42
2023-05-05T13:12:12.897Z,41.60
2023-05-05T13:15:16.843Z,34.33
2023-05-05T13:18:20.897Z,32.25
2023-05-05T13:21:25.003Z,43.35
2023-05-05T13:24:46.651Z,41.70
2023-05-05T13:27:54.055Z,36.93
2023-05-05T13:30:59.409Z,42.03
2023-05-05T13:34:03.431Z,38.03
2023-05-05T13:37:07.539Z,47.08
2023-05-05T13:40:11.951Z,58.67
2023-05-05T13:43:15.783Z,54.17
2023-05-05T13:46:20.273Z,62.60
2023-05-05T13:49:24.436Z,46.38
2023-05-05T13:52:29.404Z,43.30
2023-05-05T13:55:34.062Z,38.28
2023-05-05T13:58:37.897Z,39.50
2023-05-05T14:01:41.860Z,37.80
2023-05-05T14:04:45.840Z,46.35
2023-05-05T14:07:49.651Z,59.13
2023-05-05T14:10:53.193Z,61.35
2023-05-05T14:13:57.178Z,52.57
2023-05-05T14:17:01.405Z,53.33
2023-05-05T14:20:05.441Z,55.78
2023-05-05T14:23:08.997Z,90.63
2023-05-05T14:26:12.757Z,97.70
2023-05-05T14:29:16.052Z,102.83
2023-05-05T14:32:19.609Z,74.07
2023-05-05T14:35:22.511Z,91.30
2023-05-05T14:38:26.259Z,95.75
2023-05-05T14:41:30.335Z,74.90
2023-05-05T14:44:33.288Z,59.40
2023-05-05T14:47:37.198Z,63.93
2023-05-05T14:50:42.838Z,50.60
2023-05-05T14:53:47.438Z,47.90
2023-05-05T14:56:51.029Z,47.05
2023-05-05T14:59:55.091Z,43.60
2023-05-05T15:02:58.893Z,46.53
2023-05-05T15:06:01.812Z,45.10
2023-05-05T15:09:05.822Z,40.53
2023-05-05T15:12:09.491Z,35.85
2023-05-05T15:15:12.771Z,34.53
2023-05-05T15:18:16.591Z,28.20
2023-05-05T15:21:20.524Z,27.38
2023-05-05T15:24:24.133Z,27.05
2023-05-05T15:27:27.449Z,24.88
2023-05-05T15:30:31.276Z,18.87
2023-05-05T15:33:34.832Z,16.50
2023-05-05T15:36:38.452Z,20.23
2023-05-05T15:39:42.048Z,20.90
2023-05-05T15:42:45.702Z,17.20
2023-05-05T15:45:48.708Z,13.60
2023-05-05T15:48:52.478Z,16.43
2023-05-05T15:51:56.710Z,18.27
2023-05-05T15:54:59.689Z,24.13
2023-05-05T15:58:03.246Z,18.63
2023-05-05T16:01:06.915Z,14.07
2023-05-05T16:04:10.862Z,16.80
2023-05-05T16:07:14.881Z,18.38
2023-05-05T16:10:20.578Z,17.40
2023-05-05T16:13:24.341Z,13.82
2023-05-05T16:19:32.240Z,11.37
2023-05-05T16:22:36.444Z,9.20
2023-05-05T16:25:40.224Z,8.65
2023-05-05T16:28:44.095Z,8.77
2023-05-05T16:31:47.647Z,9.90
2023-05-05T16:34:51.602Z,12.13
2023-05-05T16:37:55.523Z,13.10
2023-05-05T16:40:59.661Z,11.55
2023-05-05T16:44:03.318Z,18.73
2023-05-05T16:47:07.209Z,16.97
2023-05-05T16:50:11.262Z,18.50
2023-05-05T16:53:14.826Z,14.75
2023-05-05T16:56:18.479Z,19.90
2023-05-05T16:59:22.341Z,13.43
2023-05-05T17:02:26.061Z,9.37
2023-05-05T17:05:30.195Z,12.43
2023-05-05T17:08:33.277Z,15.88
2023-05-05T17:11:37.533Z,15.32
2023-05-05T17:14:41.314Z,21.40
2023-05-05T17:17:45.318Z,14.80
2023-05-05T17:20:50.611Z,18.77
2023-05-05T17:23:54.403Z,15.88
2023-05-05T17:26:57.854Z,14.43
2023-05-05T17:30:01.814Z,21.25
2023-05-05T17:33:05.415Z,13.80
2023-05-05T17:36:10.215Z,8.43
2023-05-05T17:39:14.267Z,8.45
2023-05-05T17:42:23.592Z,9.75
2023-05-05T17:45:26.668Z,9.52
2023-05-05T17:48:30.041Z,18.03
2023-05-05T17:51:33.704Z,7.67
2023-05-05T17:54:38.194Z,9.15
2023-05-05T17:57:41.779Z,12.45
2023-05-05T18:00:44.912Z,9.38
2023-05-05T18:03:48.741Z,8.20
2023-05-05T18:06:52.744Z,10.40
2023-05-05T18:09:55.585Z,9.82
2023-05-05T18:12:59.728Z,9.73
2023-05-05T18:16:03.543Z,12.70
2023-05-05T18:19:08.164Z,10.83
2023-05-05T18:22:12.581Z,16.90
2023-05-05T18:25:16.729Z,13.32
2023-05-05T18:28:20.910Z,12.75
2023-05-05T18:31:24.923Z,11.35
2023-05-05T18:34:29.982Z,16.37
2023-05-05T18:37:33.284Z,17.17
2023-05-05T18:40:36.966Z,17.73
2023-05-05T18:43:40.975Z,17.45
2023-05-05T18:46:44.691Z,11.02
2023-05-05T18:49:48.958Z,8.30
2023-05-05T18:52:52.454Z,9.23
2023-05-05T18:55:56.435Z,10.95
2023-05-05T18:59:00.150Z,12.50
2023-05-05T19:02:04.118Z,17.85
2023-05-05T19:05:09.019Z,15.40
2023-05-05T19:08:12.774Z,10.37
2023-05-05T19:11:16.578Z,9.00
2023-05-05T19:14:20.508Z,7.70
2023-05-05T19:17:24.090Z,16.02
2023-05-05T19:20:28.108Z,7.93
2023-05-05T19:23:32.850Z,7.40
2023-05-05T19:26:36.844Z,15.68
2023-05-05T19:29:41.029Z,9.77
2023-05-05T19:32:45.410Z,9.93
2023-05-05T19:35:48.342Z,8.47
2023-05-05T19:38:52.268Z,8.97
2023-05-05T19:41:56.030Z,8.75
2023-05-05T19:45:00.153Z,9.32
2023-05-05T19:48:04.175Z,8.57
2023-05-05T19:51:08.340Z,7.57
2023-05-05T19:54:11.253Z,9.73
2023-05-05T19:57:15.503Z,8.07
2023-05-05T20:00:20.223Z,7.20
2023-05-05T20:03:23.294Z,6.15
2023-05-05T20:06:27.852Z,15.23
2023-05-05T20:09:31.519Z,7.70
2023-05-05T20:12:35.524Z,8.60
2023-05-05T20:15:39.220Z,9.13
2023-05-05T20:18:42.992Z,11.77
2023-05-05T20:21:45.995Z,7.63
2023-05-05T20:24:49.907Z,7.88
2023-05-05T20:27:53.591Z,9.18
2023-05-05T20:30:57.279Z,9.13
2023-05-05T20:34:00.274Z,6.82
2023-05-05T20:37:04.094Z,8.07
2023-05-05T20:40:08.523Z,11.82
2023-05-05T20:43:12.601Z,9.55
2023-05-05T20:46:16.980Z,9.52
2023-05-05T20:49:20.439Z,13.20
2023-05-05T20:52:23.953Z,12.80
2023-05-05T20:55:27.285Z,10.57
2023-05-05T20:58:30.567Z,8.43
2023-05-05T21:01:33.469Z,8.88
2023-05-05T21:04:36.780Z,10.48
2023-05-05T21:07:40.109Z,12.47
2023-05-05T21:10:43.754Z,13.07
2023-05-05T21:13:47.732Z,13.05
2023-05-05T21:16:51.316Z,18.73
2023-05-05T21:19:55.714Z,15.02
2023-05-05T21:22:59.234Z,15.33
2023-05-05T21:26:04.055Z,15.27
2023-05-05T21:29:07.702Z,15.68
2023-05-05T21:32:12.838Z,16.02
2023-05-05T21:35:16.563Z,13.15
2023-05-05T21:38:20.502Z,12.53
2023-05-05T21:41:24.474Z,12.43
2023-05-05T21:44:29.173Z,12.90
2023-05-05T21:47:32.947Z,16.02
2023-05-05T21:50:38.042Z,19.85
2023-05-05T21:53:41.772Z,28.97
2023-05-05T21:56:45.930Z,22.60
2023-05-05T21:59:49.313Z,19.50
2023-05-05T22:02:52.807Z,28.27
2023-05-05T22:09:23.437Z,19.80
2023-05-05T22:12:26.525Z,37.03
2023-05-05T22:15:38.883Z,27.33
2023-05-05T22:18:46.820Z,16.02
2023-05-05T22:21:50.080Z,13.73
2023-05-05T22:24:53.692Z,15.93
2023-05-05T22:27:57.686Z,13.07
2023-05-05T22:31:01.653Z,11.02
2023-05-05T22:34:06.301Z,10.52
2023-05-05T22:37:10.660Z,9.13
2023-05-05T22:40:14.749Z,9.17
2023-05-05T22:43:18.491Z,17.50
2023-05-05T22:46:22.614Z,12.05
2023-05-05T22:49:29.331Z,13.77
2023-05-05T22:52:33.322Z,15.90
2023-05-05T22:55:37.395Z,21.70
2023-05-05T22:58:41.121Z,10.30
2023-05-05T23:01:45.236Z,14.75
2023-05-05T23:04:48.265Z,11.40
2023-05-05T23:07:51.351Z,8.77
2023-05-05T23:10:54.870Z,8.75
2023-05-05T23:13:57.825Z,10.10
2023-05-05T23:17:01.927Z,9.90
2023-05-05T23:20:06.643Z,9.05
2023-05-05T23:23:10.519Z,12.50
2023-05-05T23:26:14.567Z,17.73
2023-05-05T23:29:18.995Z,16.97
2023-05-05T23:32:22.627Z,13.68
2023-05-05T23:35:27.225Z,13.30
2023-05-05T23:38:30.190Z,7.80
2023-05-05T23:41:34.118Z,11.70
2023-05-05T23:44:37.792Z,7.03
2023-05-05T23:47:41.190Z,7.32
2023-05-05T23:50:44.263Z,8.82
2023-05-05T23:53:48.073Z,11.13
2023-05-05T23:56:51.472Z,6.85
2023-05-05T23:59:55.060Z,6.97
